Time;durP1;ratioP1;P1;durP2;ratioP2;P2;SDS_P1;SDS_P2;PMS_P1;PMS_P2;Temp;Humidity;BMP_temperature;BMP_pressure;BME280_temperature;BME280_humidity;BME280_pressure;Samples;Min_cycle;Max_cycle;Signal;HPM_P1;HPM_P2
2022/04/25 00:01:02;;;;;;;3.85;2.03;;;;;;;;;;6309188;22;20539;-60
2022/04/25 00:03:28;;;;;;;5.22;1.90;;;;;;;;;;6309304;22;20226;-61
2022/04/25 00:05:54;;;;;;;6.03;2.72;;;;;;;;;;6309154;22;20625;-61
2022/04/25 00:08:20;;;;;;;3.45;2.08;;;;;;;;;;6309211;22;20147;-61
2022/04/25 00:10:46;;;;;;;6.03;2.70;;;;;;;;;;6309075;22;20241;-61
2022/04/25 00:13:13;;;;;;;7.30;2.60;;;;;;;;;;6309220;22;20138;-60
2022/04/25 00:15:39;;;;;;;7.40;2.90;;;;;;;;;;6310139;22;20146;-61
2022/04/25 00:18:05;;;;;;;6.68;2.17;;;;;;;;;;6317906;22;20636;-61
2022/04/25 00:20:31;;;;;;;6.65;2.40;;;;;;;;;;6314327;22;20143;-61
2022/04/25 00:23:00;;;;;;;7.30;3.00;;;;;;;;;;6309171;22;20153;-61
2022/04/25 00:25:26;;;;;;;4.18;2.25;;;;;;;;;;6308648;22;20551;-61
2022/04/25 00:27:52;;;;;;;4.70;2.10;;;;;;;;;;6311040;22;20463;-61
2022/04/25 00:30:18;;;;;;;7.53;2.58;;;;;;;;;;6308683;22;20481;-60
2022/04/25 00:32:44;;;;;;;6.82;2.60;;;;;;;;;;6309155;22;20608;-60
2022/04/25 00:35:10;;;;;;;4.38;2.30;;;;;;;;;;6308742;22;20569;-61
2022/04/25 00:37:36;;;;;;;4.40;2.10;;;;;;;;;;6309294;22;20178;-61
2022/04/25 00:40:02;;;;;;;4.03;2.35;;;;;;;;;;6308879;22;20196;-61
2022/04/25 00:42:28;;;;;;;4.63;2.45;;;;;;;;;;6308714;22;20214;-61
2022/04/25 00:44:54;;;;;;;7.88;2.95;;;;;;;;;;6308814;22;20170;-61
2022/04/25 00:47:21;;;;;;;4.60;2.10;;;;;;;;;;6308946;22;20163;-61
2022/04/25 00:49:46;;;;;;;5.15;2.50;;;;;;;;;;6308221;22;20509;-61
2022/04/25 00:52:12;;;;;;;7.20;2.58;;;;;;;;;;6308620;22;20142;-61
2022/04/25 00:54:38;;;;;;;4.90;2.28;;;;;;;;;;6308855;22;20230;-61
2022/04/25 00:57:05;;;;;;;3.83;2.20;;;;;;;;;;6308827;22;20162;-60
2022/04/25 00:59:31;;;;;;;6.78;2.70;;;;;;;;;;6308304;22;20182;-61
2022/04/25 01:01:57;;;;;;;6.53;2.55;;;;;;;;;;6308461;22;20569;-61
2022/04/25 01:04:24;;;;;;;7.10;2.40;;;;;;;;;;6308432;22;20139;-61
2022/04/25 01:06:50;;;;;;;7.75;2.63;;;;;;;;;;6308952;22;20149;-61
2022/04/25 01:09:16;;;;;;;6.30;2.63;;;;;;;;;;6308525;22;20150;-59
2022/04/25 01:11:41;;;;;;;4.05;2.20;;;;;;;;;;6308303;22;20134;-61
2022/04/25 01:14:14;;;;;;;7.40;2.60;;;;;;;;;;6308195;22;20139;-61
2022/04/25 01:16:40;;;;;;;5.35;2.35;;;;;;;;;;6308345;22;20138;-59
2022/04/25 01:19:06;;;;;;;5.68;2.40;;;;;;;;;;6308522;22;20431;-59
2022/04/25 01:21:35;;;;;;;4.05;2.00;;;;;;;;;;6308493;22;20212;-62
2022/04/25 01:29:30;;;;;;;5.55;2.33;;;;;;;;;;6308400;22;20177;-61
2022/04/25 01:31:56;;;;;;;4.90;2.58;;;;;;;;;;6308205;22;20214;-58
2022/04/25 01:34:22;;;;;;;5.18;2.20;;;;;;;;;;6308489;22;20139;-60
2022/04/25 01:36:48;;;;;;;7.70;2.80;;;;;;;;;;6308629;22;20139;-60
2022/04/25 01:39:14;;;;;;;8.25;2.60;;;;;;;;;;6308580;22;20169;-61
2022/04/25 01:41:42;;;;;;;5.70;2.28;;;;;;;;;;6308457;22;20135;-60
2022/04/25 01:44:07;;;;;;;6.07;2.38;;;;;;;;;;6308303;22;20159;-60
2022/04/25 01:46:34;;;;;;;4.03;2.13;;;;;;;;;;6308009;22;20139;-61
2022/04/25 01:49:00;;;;;;;7.07;2.38;;;;;;;;;;6308711;22;20150;-60
2022/04/25 01:51:26;;;;;;;4.05;2.30;;;;;;;;;;6307852;22;20158;-60
2022/04/25 01:53:51;;;;;;;3.90;2.13;;;;;;;;;;6308379;22;20138;-60
2022/04/25 01:56:17;;;;;;;5.30;2.05;;;;;;;;;;6308388;22;20146;-60
2022/04/25 01:58:43;;;;;;;3.75;2.03;;;;;;;;;;6308002;22;20138;-60
2022/04/25 02:01:09;;;;;;;5.97;2.38;;;;;;;;;;6308094;22;20143;-61
2022/04/25 02:03:35;;;;;;;8.02;2.70;;;;;;;;;;6308016;22;20139;-61
2022/04/25 02:06:02;;;;;;;4.72;2.15;;;;;;;;;;6308359;22;20139;-61
2022/04/25 02:08:28;;;;;;;5.53;2.30;;;;;;;;;;6308317;22;20204;-61
2022/04/25 02:13:38;;;;;;;4.97;2.00;;;;;;;;;;6307928;22;20165;-61
2022/04/25 02:16:05;;;;;;;5.13;2.50;;;;;;;;;;6307666;22;20139;-61
2022/04/25 02:18:30;;;;;;;6.53;2.45;;;;;;;;;;6308193;22;20154;-59
2022/04/25 02:20:56;;;;;;;6.30;2.47;;;;;;;;;;6307749;22;20174;-61
2022/04/25 02:23:23;;;;;;;5.97;2.78;;;;;;;;;;6307942;22;20222;-61
2022/04/25 02:25:49;;;;;;;4.57;2.03;;;;;;;;;;6307760;22;20143;-61
2022/04/25 02:28:15;;;;;;;3.08;2.40;;;;;;;;;;6308269;22;20143;-61
2022/04/25 02:30:41;;;;;;;4.32;2.20;;;;;;;;;;6307336;22;20181;-61
2022/04/25 02:33:07;;;;;;;5.03;2.17;;;;;;;;;;6307685;22;20147;-61
2022/04/25 02:35:33;;;;;;;4.30;2.17;;;;;;;;;;6307960;22;20188;-59
2022/04/25 02:37:59;;;;;;;5.15;2.20;;;;;;;;;;6309681;22;20146;-61
2022/04/25 02:40:25;;;;;;;4.25;2.38;;;;;;;;;;6309546;22;20196;-61
2022/04/25 02:42:51;;;;;;;4.22;2.30;;;;;;;;;;6309754;22;20208;-61
2022/04/25 02:45:17;;;;;;;6.65;2.45;;;;;;;;;;6309505;22;20618;-61
2022/04/25 02:47:44;;;;;;;4.40;2.60;;;;;;;;;;6309897;22;20146;-61
2022/04/25 02:50:10;;;;;;;3.83;2.10;;;;;;;;;;6309486;22;20163;-61
2022/04/25 02:52:36;;;;;;;3.80;2.33;;;;;;;;;;6309557;22;20139;-61
2022/04/25 02:55:02;;;;;;;6.40;2.40;;;;;;;;;;6309334;22;20147;-61
2022/04/25 02:57:27;;;;;;;6.18;2.47;;;;;;;;;;6309549;22;20246;-61
2022/04/25 02:59:53;;;;;;;6.03;2.40;;;;;;;;;;6309367;22;20146;-62
2022/04/25 03:02:19;;;;;;;5.95;2.38;;;;;;;;;;6309807;22;20440;-59
2022/04/25 03:04:45;;;;;;;4.65;2.03;;;;;;;;;;6309367;22;20511;-60
2022/04/25 03:07:12;;;;;;;3.30;2.40;;;;;;;;;;6309620;22;20142;-60
2022/04/25 03:09:38;;;;;;;4.35;2.40;;;;;;;;;;6309400;22;20575;-60
2022/04/25 03:12:04;;;;;;;7.43;2.70;;;;;;;;;;6309232;22;20222;-60
2022/04/25 03:14:31;;;;;;;5.25;2.30;;;;;;;;;;6309510;22;20442;-60
2022/04/25 03:16:56;;;;;;;6.97;2.60;;;;;;;;;;6309640;22;20142;-60
2022/04/25 03:19:22;;;;;;;4.43;2.33;;;;;;;;;;6309391;22;20135;-60
2022/04/25 03:21:48;;;;;;;5.03;2.03;;;;;;;;;;6309469;22;20414;-62
2022/04/25 03:24:14;;;;;;;4.10;2.55;;;;;;;;;;6309303;22;20602;-60
2022/04/25 03:26:40;;;;;;;6.97;2.83;;;;;;;;;;6309155;22;20139;-62
2022/04/25 03:29:06;;;;;;;5.25;2.75;;;;;;;;;;6309393;22;20185;-61
2022/04/25 03:31:32;;;;;;;4.45;2.30;;;;;;;;;;6309363;22;20173;-62
2022/04/25 03:33:58;;;;;;;5.28;2.75;;;;;;;;;;6309405;22;20146;-61
2022/04/25 03:36:24;;;;;;;5.75;2.40;;;;;;;;;;6309231;22;20150;-62
2022/04/25 03:38:52;;;;;;;3.42;2.17;;;;;;;;;;6309480;22;20143;-60
2022/04/25 03:41:18;;;;;;;6.30;2.60;;;;;;;;;;6309221;22;20147;-60
2022/04/25 03:43:44;;;;;;;4.53;2.78;;;;;;;;;;6309378;22;20431;-59
2022/04/25 03:46:10;;;;;;;6.95;2.58;;;;;;;;;;6311686;22;20150;-61
2022/04/25 03:48:39;;;;;;;6.10;2.22;;;;;;;;;;6308734;22;20614;-61
2022/04/25 03:51:05;;;;;;;6.40;2.80;;;;;;;;;;6309106;22;20174;-61
2022/04/25 03:53:31;;;;;;;4.38;2.55;;;;;;;;;;6309232;22;20139;-60
2022/04/25 03:58:41;;;;;;;6.15;2.42;;;;;;;;;;6308950;22;20619;-61
2022/04/25 04:01:07;;;;;;;4.57;2.75;;;;;;;;;;6308697;22;20170;-61
2022/04/25 04:03:34;;;;;;;3.53;2.42;;;;;;;;;;6308781;22;20229;-60
2022/04/25 04:06:00;;;;;;;4.50;2.55;;;;;;;;;;6308945;22;20212;-62
2022/04/25 04:08:26;;;;;;;7.05;2.75;;;;;;;;;;6308830;22;20494;-61
2022/04/25 04:10:52;;;;;;;6.53;2.92;;;;;;;;;;6309083;22;20166;-61
2022/04/25 04:13:19;;;;;;;5.00;2.58;;;;;;;;;;6309314;22;20142;-60
2022/04/25 04:15:44;;;;;;;5.80;2.88;;;;;;;;;;6309267;22;20489;-61
2022/04/25 04:18:11;;;;;;;8.55;2.65;;;;;;;;;;6309121;22;20139;-60
2022/04/25 04:20:37;;;;;;;6.05;2.90;;;;;;;;;;6309383;22;20219;-61
2022/04/25 04:23:03;;;;;;;6.68;2.83;;;;;;;;;;6309295;22;20192;-60
2022/04/25 04:25:31;;;;;;;7.45;3.10;;;;;;;;;;6308894;22;20173;-61
2022/04/25 04:27:57;;;;;;;6.50;2.72;;;;;;;;;;6309043;22;20149;-60
2022/04/25 04:30:23;;;;;;;7.22;3.20;;;;;;;;;;6308606;22;20185;-60
2022/04/25 04:32:49;;;;;;;5.82;2.95;;;;;;;;;;6308811;22;20436;-61
2022/04/25 04:36:17;;;;;;;6.97;2.97;;;;;;;;;;6308914;22;20143;-60
2022/04/25 04:38:02;;;;;;;6.07;3.20;;;;;;;;;;6308559;22;20237;-61
2022/04/25 04:40:28;;;;;;;5.50;3.33;;;;;;;;;;6308542;22;20171;-61
2022/04/25 04:42:54;;;;;;;8.18;3.53;;;;;;;;;;6308748;22;20150;-61
2022/04/25 04:45:20;;;;;;;6.95;3.17;;;;;;;;;;6308499;22;20166;-61
2022/04/25 04:47:46;;;;;;;4.55;2.58;;;;;;;;;;6308579;22;20558;-61
2022/04/25 04:50:16;;;;;;;5.22;3.38;;;;;;;;;;6308270;22;20166;-60
2022/04/25 04:52:43;;;;;;;7.18;3.53;;;;;;;;;;6308620;22;20220;-61
2022/04/25 04:55:09;;;;;;;3.90;2.60;;;;;;;;;;6308222;22;20391;-61
2022/04/25 04:57:37;;;;;;;7.18;3.38;;;;;;;;;;6308579;22;20135;-61
2022/04/25 05:00:03;;;;;;;4.75;2.53;;;;;;;;;;6308504;22;20146;-61
2022/04/25 05:02:29;;;;;;;6.50;3.22;;;;;;;;;;6308095;22;20143;-61
2022/04/25 05:04:55;;;;;;;4.70;2.95;;;;;;;;;;6308749;22;20150;-61
2022/04/25 05:07:21;;;;;;;5.53;2.60;;;;;;;;;;6308457;22;20153;-61
2022/04/25 05:09:48;;;;;;;6.82;2.75;;;;;;;;;;6308128;22;20194;-61
2022/04/25 05:12:14;;;;;;;9.10;3.13;;;;;;;;;;6308404;22;20147;-61
2022/04/25 05:14:40;;;;;;;4.43;2.70;;;;;;;;;;6308235;22;20173;-61
2022/04/25 05:17:06;;;;;;;4.43;2.63;;;;;;;;;;6308399;22;20154;-60
2022/04/25 05:19:32;;;;;;;4.55;2.97;;;;;;;;;;6308644;22;20143;-61
2022/04/25 05:21:58;;;;;;;3.78;2.78;;;;;;;;;;6307918;22;20135;-58
2022/04/25 05:24:24;;;;;;;5.10;2.83;;;;;;;;;;6309330;22;20150;-62
2022/04/25 05:26:50;;;;;;;4.75;2.83;;;;;;;;;;6308736;22;20145;-62
2022/04/25 05:29:16;;;;;;;5.03;2.58;;;;;;;;;;6307993;22;20692;-61
2022/04/25 05:31:42;;;;;;;6.63;3.10;;;;;;;;;;6307844;22;20167;-62
2022/04/25 05:34:09;;;;;;;6.15;2.75;;;;;;;;;;6308392;22;20447;-62
2022/04/25 05:36:35;;;;;;;3.63;2.25;;;;;;;;;;6308458;22;20135;-61
2022/04/25 05:39:00;;;;;;;4.57;2.85;;;;;;;;;;6308266;22;20454;-61
2022/04/25 05:41:26;;;;;;;6.05;3.08;;;;;;;;;;6308109;22;20138;-59
2022/04/25 05:43:52;;;;;;;5.10;2.55;;;;;;;;;;6308398;22;20150;-61
2022/04/25 05:46:20;;;;;;;3.15;2.50;;;;;;;;;;6308118;22;20153;-61
2022/04/25 05:54:15;;;;;;;4.75;2.50;;;;;;;;;;6307821;22;20513;-61
2022/04/25 05:56:42;;;;;;;5.10;2.47;;;;;;;;;;6308138;22;20143;-61
2022/04/25 05:59:09;;;;;;;4.10;2.72;;;;;;;;;;6308218;22;20139;-61
2022/04/25 06:01:35;;;;;;;4.43;2.90;;;;;;;;;;6308330;22;20143;-61
2022/04/25 06:04:01;;;;;;;4.22;2.60;;;;;;;;;;6307888;22;20149;-60
2022/04/25 06:06:27;;;;;;;4.00;2.70;;;;;;;;;;6307807;22;20147;-63
2022/04/25 06:08:53;;;;;;;6.22;2.60;;;;;;;;;;6307801;22;20174;-60
2022/04/25 06:11:21;;;;;;;4.00;2.55;;;;;;;;;;6309069;22;20253;-62
2022/04/25 06:13:47;;;;;;;2.80;2.40;;;;;;;;;;6310269;22;20554;-62
2022/04/25 06:16:13;;;;;;;4.82;2.55;;;;;;;;;;6310434;22;20288;-61
2022/04/25 06:18:39;;;;;;;3.70;2.08;;;;;;;;;;6310119;22;20179;-62
2022/04/25 06:21:05;;;;;;;5.70;2.95;;;;;;;;;;6309756;22;20148;-62
2022/04/25 06:23:31;;;;;;;4.10;2.60;;;;;;;;;;6309767;22;20221;-60
2022/04/25 06:25:57;;;;;;;7.65;3.15;;;;;;;;;;6309819;22;20139;-61
2022/04/25 06:28:26;;;;;;;4.18;2.58;;;;;;;;;;6309501;22;20580;-61
2022/04/25 06:30:52;;;;;;;5.78;2.58;;;;;;;;;;6309532;22;20183;-62
2022/04/25 06:33:18;;;;;;;4.32;2.33;;;;;;;;;;6309674;22;20543;-60
2022/04/25 06:35:49;;;;;;;6.90;2.38;;;;;;;;;;6309624;22;20554;-59
2022/04/25 06:38:15;;;;;;;6.45;2.10;;;;;;;;;;6309932;22;20135;-62
2022/04/25 06:40:42;;;;;;;5.32;2.30;;;;;;;;;;6309738;22;20444;-61
2022/04/25 06:43:09;;;;;;;4.22;2.25;;;;;;;;;;6309975;22;20203;-61
2022/04/25 06:45:35;;;;;;;3.55;2.30;;;;;;;;;;6309627;22;20174;-60
2022/04/25 06:48:01;;;;;;;6.20;2.35;;;;;;;;;;6309658;22;20139;-61
2022/04/25 06:50:27;;;;;;;2.70;2.38;;;;;;;;;;6309220;22;20167;-60
2022/04/25 06:52:53;;;;;;;8.80;2.42;;;;;;;;;;6309463;22;20523;-62
2022/04/25 06:55:19;;;;;;;2.47;2.00;;;;;;;;;;6309410;22;20135;-62
2022/04/25 06:57:47;;;;;;;2.75;1.95;;;;;;;;;;6309821;22;20153;-60
2022/04/25 07:00:17;;;;;;;4.85;2.17;;;;;;;;;;6309825;22;20143;-59
2022/04/25 07:02:44;;;;;;;4.50;2.40;;;;;;;;;;6310375;22;20153;-61
2022/04/25 07:05:10;;;;;;;2.53;2.33;;;;;;;;;;6310192;22;20231;-62
2022/04/25 07:07:37;;;;;;;2.90;2.08;;;;;;;;;;6309388;22;20423;-61
2022/04/25 07:10:03;;;;;;;3.20;2.42;;;;;;;;;;6309692;22;20205;-61
2022/04/25 07:12:29;;;;;;;3.58;2.03;;;;;;;;;;6309625;22;20139;-60
2022/04/25 07:14:56;;;;;;;4.72;2.55;;;;;;;;;;6309390;22;20502;-62
2022/04/25 07:17:22;;;;;;;4.13;2.30;;;;;;;;;;6309726;22;20169;-61
2022/04/25 07:19:48;;;;;;;3.17;1.85;;;;;;;;;;6309181;22;20139;-62
2022/04/25 07:30:27;;;;;;;2.83;2.00;;;;;;;;;;6309035;22;20666;-62
2022/04/25 07:32:55;;;;;;;2.92;1.90;;;;;;;;;;6309347;22;20226;-62
2022/04/25 07:35:21;;;;;;;3.60;2.28;;;;;;;;;;6309354;22;20237;-62
2022/04/25 07:37:48;;;;;;;3.85;2.25;;;;;;;;;;6309539;22;20154;-60
2022/04/25 07:40:14;;;;;;;3.58;2.28;;;;;;;;;;6308968;22;20143;-61
2022/04/25 07:42:40;;;;;;;3.40;2.42;;;;;;;;;;6309563;22;20153;-60
2022/04/25 07:45:07;;;;;;;3.55;2.20;;;;;;;;;;6308975;22;20143;-62
2022/04/25 07:47:33;;;;;;;4.63;2.53;;;;;;;;;;6309545;22;20199;-60
2022/04/25 07:49:59;;;;;;;4.43;2.38;;;;;;;;;;6309046;22;20676;-61
2022/04/25 07:52:25;;;;;;;4.53;2.30;;;;;;;;;;6309350;22;20146;-60
2022/04/25 07:54:52;;;;;;;3.05;2.22;;;;;;;;;;6308966;22;20518;-62
2022/04/25 07:57:19;;;;;;;3.17;2.30;;;;;;;;;;6309158;22;20464;-62
2022/04/25 07:59:45;;;;;;;3.90;2.38;;;;;;;;;;6308899;22;20218;-62
2022/04/25 08:02:11;;;;;;;3.83;2.35;;;;;;;;;;6309014;22;20142;-62
2022/04/25 08:04:36;;;;;;;3.47;2.53;;;;;;;;;;6308844;22;20225;-59
2022/04/25 08:07:02;;;;;;;4.93;2.25;;;;;;;;;;6308762;22;20559;-61
2022/04/25 08:09:28;;;;;;;3.83;2.53;;;;;;;;;;6308809;22;20135;-61
2022/04/25 08:20:08;;;;;;;3.83;2.45;;;;;;;;;;6309063;22;20146;-62
2022/04/25 08:22:34;;;;;;;5.38;2.45;;;;;;;;;;6309097;22;20560;-59
2022/04/25 08:25:04;;;;;;;3.20;2.42;;;;;;;;;;6309004;22;20143;-60
2022/04/25 08:27:30;;;;;;;6.95;2.60;;;;;;;;;;6309066;22;20150;-59
2022/04/25 08:29:57;;;;;;;4.15;2.45;;;;;;;;;;6308418;22;20286;-60
2022/04/25 08:32:22;;;;;;;3.08;2.35;;;;;;;;;;6309129;22;20139;-60
2022/04/25 08:34:48;;;;;;;3.08;2.28;;;;;;;;;;6308344;22;20139;-60
2022/04/25 08:37:16;;;;;;;2.80;2.22;;;;;;;;;;6308544;22;20143;-61
2022/04/25 08:39:42;;;;;;;2.85;2.05;;;;;;;;;;6308603;22;20136;-61
2022/04/25 08:42:09;;;;;;;4.57;2.58;;;;;;;;;;6308717;22;20262;-60
2022/04/25 08:44:35;;;;;;;4.28;2.60;;;;;;;;;;6309230;22;20245;-60
2022/04/25 08:47:01;;;;;;;3.08;2.20;;;;;;;;;;6308500;22;20139;-61
2022/04/25 08:49:28;;;;;;;4.53;2.47;;;;;;;;;;6281504;22;20154;-61
2022/04/25 08:51:58;;;;;;;3.88;2.55;;;;;;;;;;6308575;22;20154;-61
2022/04/25 08:54:26;;;;;;;3.03;2.33;;;;;;;;;;6308679;22;20198;-63
2022/04/25 08:56:52;;;;;;;2.97;2.15;;;;;;;;;;6308632;22;20464;-60
2022/04/25 08:59:18;;;;;;;3.03;2.70;;;;;;;;;;6308744;22;20146;-59
2022/04/25 09:01:44;;;;;;;6.10;2.40;;;;;;;;;;6308856;22;20181;-60
2022/04/25 09:04:10;;;;;;;2.97;2.55;;;;;;;;;;6308547;22;20209;-60
2022/04/25 09:06:36;;;;;;;6.20;2.95;;;;;;;;;;6308100;22;20181;-61
2022/04/25 09:09:02;;;;;;;3.28;2.50;;;;;;;;;;6309446;22;20139;-61
2022/04/25 09:14:13;;;;;;;3.97;2.10;;;;;;;;;;6308657;22;20511;-61
2022/04/25 09:16:40;;;;;;;2.72;2.13;;;;;;;;;;6309112;22;20146;-62
2022/04/25 09:19:06;;;;;;;5.00;2.30;;;;;;;;;;6309373;22;20140;-61
2022/04/25 09:21:39;;;;;;;3.30;2.40;;;;;;;;;;6309214;22;20196;-60
2022/04/25 09:24:25;;;;;;;2.83;2.38;;;;;;;;;;6308349;22;20127;-61
2022/04/25 09:27:12;;;;;;;4.05;2.33;;;;;;;;;;6308873;22;20139;-61
2022/04/25 09:29:39;;;;;;;5.25;3.08;;;;;;;;;;6307802;22;20150;-59
2022/04/25 09:32:06;;;;;;;3.60;2.38;;;;;;;;;;6308475;22;20150;-61
2022/04/25 09:37:17;;;;;;;3.17;2.45;;;;;;;;;;6308212;22;20157;-61
2022/04/25 09:39:43;;;;;;;2.60;2.17;;;;;;;;;;6307956;22;20219;-61
2022/04/25 09:42:09;;;;;;;3.95;2.80;;;;;;;;;;6308235;22;20152;-61
2022/04/25 09:44:56;;;;;;;3.42;2.50;;;;;;;;;;6307661;22;20142;-61
2022/04/25 09:47:36;;;;;;;4.35;2.40;;;;;;;;;;6308467;22;20139;-61
2022/04/25 09:50:05;;;;;;;3.78;2.20;;;;;;;;;;6308165;22;20209;-61
2022/04/25 09:52:32;;;;;;;2.90;2.40;;;;;;;;;;6308451;22;20146;-61
2022/04/25 09:55:10;;;;;;;4.43;2.45;;;;;;;;;;6307461;22;20193;-61
2022/04/25 09:57:36;;;;;;;4.18;2.60;;;;;;;;;;6308102;22;20123;-59
2022/04/25 10:00:03;;;;;;;3.55;2.47;;;;;;;;;;6308031;22;20423;-62
2022/04/25 10:02:29;;;;;;;5.93;2.75;;;;;;;;;;6307953;22;20221;-63
2022/04/25 10:04:56;;;;;;;3.17;2.67;;;;;;;;;;6307917;22;20142;-62
2022/04/25 10:07:23;;;;;;;3.95;2.63;;;;;;;;;;6307944;22;20503;-62
2022/04/25 10:09:52;;;;;;;3.63;2.10;;;;;;;;;;6308046;22;20539;-62
2022/04/25 10:12:18;;;;;;;3.58;2.50;;;;;;;;;;6308086;22;20135;-60
2022/04/25 10:14:44;;;;;;;5.18;2.60;;;;;;;;;;6308187;22;20157;-61
2022/04/25 10:17:10;;;;;;;3.97;2.50;;;;;;;;;;6308635;22;20151;-60
2022/04/25 10:19:38;;;;;;;3.58;2.50;;;;;;;;;;6308729;22;20204;-60
2022/04/25 10:22:04;;;;;;;4.03;2.63;;;;;;;;;;6307813;22;20151;-62
2022/04/25 10:24:32;;;;;;;3.20;2.35;;;;;;;;;;6308227;22;20222;-61
2022/04/25 10:27:02;;;;;;;2.85;2.28;;;;;;;;;;6307466;22;20457;-61
2022/04/25 10:29:30;;;;;;;2.65;2.08;;;;;;;;;;6307873;22;20217;-60
2022/04/25 10:31:58;;;;;;;2.70;2.50;;;;;;;;;;6307414;22;20170;-61
2022/04/25 10:34:45;;;;;;;3.05;2.08;;;;;;;;;;6307641;22;20213;-61
2022/04/25 10:37:30;;;;;;;4.82;2.72;;;;;;;;;;6307680;22;20712;-61
2022/04/25 10:39:56;;;;;;;3.00;2.30;;;;;;;;;;6307727;22;20151;-61
2022/04/25 10:45:07;;;;;;;2.95;2.40;;;;;;;;;;6307463;22;20145;-61
2022/04/25 10:47:33;;;;;;;4.28;2.15;;;;;;;;;;6307437;22;20558;-61
2022/04/25 10:50:02;;;;;;;3.78;2.20;;;;;;;;;;6307735;22;20169;-63
2022/04/25 10:55:19;;;;;;;3.28;2.75;;;;;;;;;;6308129;22;20551;-60
2022/04/25 10:58:07;;;;;;;3.15;2.50;;;;;;;;;;6308812;22;20557;-62
2022/04/25 11:00:45;;;;;;;4.38;2.45;;;;;;;;;;6309669;22;20196;-62
2022/04/25 11:03:28;;;;;;;2.53;2.33;;;;;;;;;;6309815;22;20426;-62
2022/04/25 11:05:55;;;;;;;2.75;2.40;;;;;;;;;;6309627;22;20146;-62
2022/04/25 11:08:24;;;;;;;4.97;2.20;;;;;;;;;;6309637;22;20237;-62
2022/04/25 11:11:08;;;;;;;5.32;2.30;;;;;;;;;;6309444;22;20190;-62
2022/04/25 11:14:04;;;;;;;3.95;2.58;;;;;;;;;;6309860;22;20147;-62
2022/04/25 11:16:30;;;;;;;2.95;2.47;;;;;;;;;;6309020;22;20527;-62
2022/04/25 11:19:07;;;;;;;3.53;2.80;;;;;;;;;;6309100;22;20132;-59
2022/04/25 11:21:33;;;;;;;3.53;2.55;;;;;;;;;;6309469;22;20513;-62
2022/04/25 11:24:01;;;;;;;3.97;2.40;;;;;;;;;;6309804;22;20147;-61
2022/04/25 11:26:29;;;;;;;3.08;2.53;;;;;;;;;;6309219;22;20430;-62
2022/04/25 11:28:54;;;;;;;3.58;2.70;;;;;;;;;;6309409;22;20161;-61
2022/04/25 11:31:25;;;;;;;3.03;2.72;;;;;;;;;;6309090;22;20512;-62
2022/04/25 11:33:52;;;;;;;4.38;2.60;;;;;;;;;;6308989;22;20399;-61
2022/04/25 11:36:19;;;;;;;3.92;2.65;;;;;;;;;;6309009;22;20135;-61
2022/04/25 11:41:34;;;;;;;4.00;2.30;;;;;;;;;;6308978;22;20142;-62
2022/04/25 11:44:00;;;;;;;3.05;2.28;;;;;;;;;;6309248;22;20170;-61
2022/04/25 11:46:26;;;;;;;2.45;2.20;;;;;;;;;;6308836;22;20550;-61
2022/04/25 11:48:53;;;;;;;3.30;2.10;;;;;;;;;;6308912;22;20166;-62
2022/04/25 11:51:26;;;;;;;2.42;2.22;;;;;;;;;;6308812;22;20167;-62
2022/04/25 11:53:53;;;;;;;4.38;2.67;;;;;;;;;;6308943;22;20139;-61
2022/04/25 11:56:20;;;;;;;3.05;2.20;;;;;;;;;;6309387;22;20138;-61
2022/04/25 11:58:47;;;;;;;2.85;2.30;;;;;;;;;;6309323;22;20163;-61
2022/04/25 12:01:13;;;;;;;3.22;2.20;;;;;;;;;;6309275;22;20437;-61
2022/04/25 12:03:39;;;;;;;3.22;2.25;;;;;;;;;;6308970;22;20143;-61
2022/04/25 12:06:12;;;;;;;4.82;2.40;;;;;;;;;;6308824;22;20150;-60
2022/04/25 12:16:54;;;;;;;2.85;2.10;;;;;;;;;;6308842;22;20152;-61
2022/04/25 12:19:22;;;;;;;2.22;2.00;;;;;;;;;;6308687;22;20162;-61
2022/04/25 12:21:48;;;;;;;2.78;2.10;;;;;;;;;;6308526;22;20485;-62
2022/04/25 12:24:18;;;;;;;2.38;1.92;;;;;;;;;;6308685;22;20166;-62
2022/04/25 12:26:43;;;;;;;2.25;2.00;;;;;;;;;;6308473;22;20581;-61
2022/04/25 12:29:11;;;;;;;3.10;2.15;;;;;;;;;;6308527;22;20235;-61
2022/04/25 12:31:44;;;;;;;2.45;2.20;;;;;;;;;;6308491;22;20501;-61
2022/04/25 12:34:10;;;;;;;2.65;2.00;;;;;;;;;;6308839;22;20123;-62
2022/04/25 12:36:37;;;;;;;2.40;2.20;;;;;;;;;;6308388;22;20166;-61
2022/04/25 12:39:14;;;;;;;3.90;2.17;;;;;;;;;;6308763;22;20561;-61
2022/04/25 12:41:59;;;;;;;3.45;2.10;;;;;;;;;;6308703;22;20530;-61
2022/04/25 12:44:25;;;;;;;3.05;2.03;;;;;;;;;;6308199;22;20142;-61
2022/04/25 12:46:53;;;;;;;3.90;2.33;;;;;;;;;;6307966;22;20218;-61
2022/04/25 12:49:39;;;;;;;2.42;2.10;;;;;;;;;;6307991;22;20612;-61
2022/04/25 12:52:09;;;;;;;3.17;2.05;;;;;;;;;;6280833;22;20656;-61
2022/04/25 12:54:37;;;;;;;2.10;1.90;;;;;;;;;;6308146;22;20150;-60
2022/04/25 12:57:08;;;;;;;2.17;1.70;;;;;;;;;;6308190;22;20143;-60
2022/04/25 12:59:34;;;;;;;2.17;1.80;;;;;;;;;;6308715;22;20131;-60
2022/04/25 13:02:10;;;;;;;2.30;2.10;;;;;;;;;;6308374;22;20143;-60
2022/04/25 13:04:52;;;;;;;2.35;2.10;;;;;;;;;;6308555;22;20128;-60
2022/04/25 13:07:19;;;;;;;2.90;1.77;;;;;;;;;;6308721;22;20584;-60
2022/04/25 13:09:46;;;;;;;3.40;1.60;;;;;;;;;;6308981;22;20201;-61
2022/04/25 13:12:13;;;;;;;1.83;1.45;;;;;;;;;;6308058;22;20135;-60
2022/04/25 13:14:39;;;;;;;2.58;1.55;;;;;;;;;;6308227;22;20199;-59
2022/04/25 13:17:06;;;;;;;3.08;1.88;;;;;;;;;;6309066;22;20146;-61
2022/04/25 13:19:32;;;;;;;2.35;1.80;;;;;;;;;;6308942;22;20139;-61
2022/04/25 13:21:58;;;;;;;3.38;1.83;;;;;;;;;;6308038;22;20502;-60
2022/04/25 13:24:24;;;;;;;1.88;1.50;;;;;;;;;;6308391;22;20162;-61
2022/04/25 13:26:50;;;;;;;2.88;1.55;;;;;;;;;;6307908;22;20150;-61
2022/04/25 13:29:16;;;;;;;1.90;1.50;;;;;;;;;;6308133;22;20182;-61
2022/04/25 13:31:42;;;;;;;2.22;1.42;;;;;;;;;;6308499;22;20504;-61
2022/04/25 13:34:08;;;;;;;3.00;2.00;;;;;;;;;;6307854;22;20217;-60
2022/04/25 13:36:35;;;;;;;2.33;2.05;;;;;;;;;;6308110;22;20440;-61
2022/04/25 13:39:01;;;;;;;2.17;1.90;;;;;;;;;;6308321;22;20146;-61
2022/04/25 13:41:28;;;;;;;3.10;2.05;;;;;;;;;;6307897;22;20604;-61
2022/04/25 13:43:54;;;;;;;2.90;1.75;;;;;;;;;;6307811;22;20148;-61
2022/04/25 13:46:20;;;;;;;2.28;1.75;;;;;;;;;;6307766;22;20224;-61
2022/04/25 13:48:46;;;;;;;2.13;1.92;;;;;;;;;;6307574;22;20145;-61
2022/04/25 13:51:12;;;;;;;2.20;1.92;;;;;;;;;;6307755;22;20464;-61
2022/04/25 13:53:38;;;;;;;2.67;1.95;;;;;;;;;;6307392;22;20222;-61
2022/04/25 13:56:06;;;;;;;2.00;1.73;;;;;;;;;;6280807;22;20555;-61
2022/04/25 13:58:32;;;;;;;2.00;1.80;;;;;;;;;;6307844;22;20161;-61
2022/04/25 14:00:58;;;;;;;2.60;2.05;;;;;;;;;;6308103;22;20617;-63
2022/04/25 14:03:27;;;;;;;2.28;1.65;;;;;;;;;;6307989;22;20184;-62
2022/04/25 14:05:53;;;;;;;2.90;1.75;;;;;;;;;;6307870;22;20652;-61
2022/04/25 14:08:20;;;;;;;2.03;1.83;;;;;;;;;;6307644;22;20144;-61
2022/04/25 14:10:47;;;;;;;1.90;1.45;;;;;;;;;;6307990;22;20173;-62
2022/04/25 14:13:14;;;;;;;1.83;1.50;;;;;;;;;;6307352;22;20142;-62
2022/04/25 14:15:40;;;;;;;1.30;1.20;;;;;;;;;;6308030;22;20143;-61
2022/04/25 14:18:08;;;;;;;1.60;1.50;;;;;;;;;;6307995;22;20205;-62
2022/04/25 14:20:34;;;;;;;2.10;1.40;;;;;;;;;;6307999;22;20154;-62
2022/04/25 14:23:00;;;;;;;3.53;1.70;;;;;;;;;;6307968;22;20138;-62
2022/04/25 14:25:27;;;;;;;3.03;1.48;;;;;;;;;;6307759;22;20419;-62
2022/04/25 14:27:53;;;;;;;2.28;1.42;;;;;;;;;;6307663;22;20169;-62
2022/04/25 14:30:19;;;;;;;2.35;1.58;;;;;;;;;;6307459;22;20210;-62
2022/04/25 14:32:45;;;;;;;2.58;1.38;;;;;;;;;;6309223;22;20139;-62
2022/04/25 14:35:11;;;;;;;2.50;1.95;;;;;;;;;;6309976;22;20204;-62
2022/04/25 14:37:37;;;;;;;2.20;1.50;;;;;;;;;;6309986;22;20162;-61
2022/04/25 14:40:04;;;;;;;2.10;1.75;;;;;;;;;;6310111;22;20208;-63
2022/04/25 14:42:30;;;;;;;1.65;1.50;;;;;;;;;;6310091;22;20171;-61
2022/04/25 14:44:56;;;;;;;1.63;1.48;;;;;;;;;;6309801;22;20150;-60
2022/04/25 14:47:22;;;;;;;1.95;1.40;;;;;;;;;;6309728;22;20142;-61
2022/04/25 14:55:20;;;;;;;2.28;1.65;;;;;;;;;;6309653;22;20430;-60
2022/04/25 14:57:48;;;;;;;1.42;1.33;;;;;;;;;;6309926;22;20139;-62
2022/04/25 15:00:15;;;;;;;1.70;1.50;;;;;;;;;;6309863;22;20230;-62
2022/04/25 15:02:41;;;;;;;1.77;1.58;;;;;;;;;;6310296;22;20151;-59
2022/04/25 15:05:07;;;;;;;2.40;1.58;;;;;;;;;;6309646;22;20448;-61
2022/04/25 15:07:33;;;;;;;3.45;1.70;;;;;;;;;;6309783;22;20180;-61
2022/04/25 15:09:59;;;;;;;3.28;1.55;;;;;;;;;;6309390;22;20139;-61
2022/04/25 15:12:25;;;;;;;3.20;1.42;;;;;;;;;;6309530;22;20166;-61
2022/04/25 15:14:51;;;;;;;1.60;1.50;;;;;;;;;;6309257;22;20501;-61
2022/04/25 15:17:17;;;;;;;2.92;1.70;;;;;;;;;;6309306;22;20139;-60
2022/04/25 15:19:43;;;;;;;1.55;1.30;;;;;;;;;;6310423;22;20213;-62
2022/04/25 15:22:09;;;;;;;1.63;1.52;;;;;;;;;;6309746;22;20226;-62
2022/04/25 15:24:36;;;;;;;1.90;1.70;;;;;;;;;;6309487;22;20184;-62
2022/04/25 15:27:02;;;;;;;3.22;1.50;;;;;;;;;;6309395;22;20228;-61
2022/04/25 15:29:28;;;;;;;2.20;1.83;;;;;;;;;;6309123;22;20569;-61
2022/04/25 15:31:53;;;;;;;2.40;1.63;;;;;;;;;;6309493;22;20224;-62
2022/04/25 15:34:20;;;;;;;3.60;1.70;;;;;;;;;;6309282;22;20131;-61
2022/04/25 15:36:46;;;;;;;1.90;1.60;;;;;;;;;;6309303;22;20214;-61
2022/04/25 15:39:11;;;;;;;2.10;1.35;;;;;;;;;;6309504;22;20285;-62
2022/04/25 15:41:37;;;;;;;2.30;1.55;;;;;;;;;;6309111;22;20143;-62
2022/04/25 15:44:04;;;;;;;2.08;1.73;;;;;;;;;;6308973;22;20444;-61